sensor_id;sensor_type;location;lat;lon;timestamp;P1;durP1;ratioP1;P2;durP2;ratioP2
30301;SDS011;17111;52.130;5.028;2023-07-31T00:01:12;4.32;;;2.78;;
30301;SDS011;17111;52.130;5.028;2023-07-31T00:03:39;4.95;;;3.20;;
30301;SDS011;17111;52.130;5.028;2023-07-31T00:06:06;3.65;;;2.55;;
30301;SDS011;17111;52.130;5.028;2023-07-31T00:08:32;3.25;;;2.25;;
30301;SDS011;17111;52.130;5.028;2023-07-31T00:10:59;4.45;;;2.65;;
30301;SDS011;17111;52.130;5.028;2023-07-31T00:13:26;4.07;;;2.70;;
30301;SDS011;17111;52.130;5.028;2023-07-31T00:15:52;4.28;;;2.85;;
30301;SDS011;17111;52.130;5.028;2023-07-31T00:18:19;5.18;;;2.97;;
30301;SDS011;17111;52.130;5.028;2023-07-31T00:20:46;3.80;;;2.50;;
30301;SDS011;17111;52.130;5.028;2023-07-31T00:23:12;5.43;;;3.10;;
30301;SDS011;17111;52.130;5.028;2023-07-31T00:25:39;6.65;;;3.28;;
30301;SDS011;17111;52.130;5.028;2023-07-31T00:28:05;5.45;;;2.90;;
30301;SDS011;17111;52.130;5.028;2023-07-31T00:30:32;8.77;;;3.47;;
30301;SDS011;17111;52.130;5.028;2023-07-31T00:32:59;4.70;;;3.03;;
30301;SDS011;17111;52.130;5.028;2023-07-31T00:35:25;6.90;;;3.58;;
30301;SDS011;17111;52.130;5.028;2023-07-31T00:37:52;7.32;;;3.38;;
30301;SDS011;17111;52.130;5.028;2023-07-31T00:40:19;6.50;;;3.50;;
30301;SDS011;17111;52.130;5.028;2023-07-31T00:42:45;7.15;;;3.45;;
30301;SDS011;17111;52.130;5.028;2023-07-31T00:45:12;10.88;;;4.30;;
30301;SDS011;17111;52.130;5.028;2023-07-31T00:47:38;10.73;;;3.53;;
30301;SDS011;17111;52.130;5.028;2023-07-31T00:50:05;7.03;;;3.67;;
30301;SDS011;17111;52.130;5.028;2023-07-31T00:52:33;8.30;;;3.58;;
30301;SDS011;17111;52.130;5.028;2023-07-31T00:54:59;7.20;;;3.92;;
30301;SDS011;17111;52.130;5.028;2023-07-31T00:57:26;7.57;;;3.70;;
30301;SDS011;17111;52.130;5.028;2023-07-31T00:59:53;9.73;;;4.43;;
30301;SDS011;17111;52.130;5.028;2023-07-31T01:02:19;6.25;;;4.10;;
30301;SDS011;17111;52.130;5.028;2023-07-31T01:04:46;8.27;;;4.25;;
30301;SDS011;17111;52.130;5.028;2023-07-31T01:07:19;7.85;;;3.55;;
30301;SDS011;17111;52.130;5.028;2023-07-31T01:12:26;7.90;;;4.18;;
30301;SDS011;17111;52.130;5.028;2023-07-31T01:17:27;8.25;;;3.88;;
30301;SDS011;17111;52.130;5.028;2023-07-31T01:19:54;7.85;;;3.55;;
30301;SDS011;17111;52.130;5.028;2023-07-31T01:27:56;8.45;;;4.05;;
30301;SDS011;17111;52.130;5.028;2023-07-31T01:30:32;6.93;;;3.50;;
30301;SDS011;17111;52.130;5.028;2023-07-31T01:33:02;9.13;;;3.47;;
30301;SDS011;17111;52.130;5.028;2023-07-31T01:35:34;10.32;;;4.07;;
30301;SDS011;17111;52.130;5.028;2023-07-31T01:38:02;6.88;;;3.60;;
30301;SDS011;17111;52.130;5.028;2023-07-31T01:40:29;8.20;;;3.40;;
30301;SDS011;17111;52.130;5.028;2023-07-31T01:42:55;9.65;;;4.05;;
30301;SDS011;17111;52.130;5.028;2023-07-31T01:45:22;14.38;;;4.35;;
30301;SDS011;17111;52.130;5.028;2023-07-31T01:47:49;11.35;;;4.43;;
30301;SDS011;17111;52.130;5.028;2023-07-31T01:50:15;7.70;;;3.53;;
30301;SDS011;17111;52.130;5.028;2023-07-31T01:52:42;6.07;;;3.95;;
30301;SDS011;17111;52.130;5.028;2023-07-31T01:55:08;7.82;;;3.92;;
30301;SDS011;17111;52.130;5.028;2023-07-31T01:57:36;10.73;;;4.22;;
30301;SDS011;17111;52.130;5.028;2023-07-31T02:00:03;6.00;;;3.40;;
30301;SDS011;17111;52.130;5.028;2023-07-31T02:02:30;8.32;;;3.70;;
30301;SDS011;17111;52.130;5.028;2023-07-31T02:04:57;7.57;;;3.38;;
30301;SDS011;17111;52.130;5.028;2023-07-31T02:07:24;7.15;;;3.60;;
30301;SDS011;17111;52.130;5.028;2023-07-31T02:09:50;9.57;;;3.80;;
30301;SDS011;17111;52.130;5.028;2023-07-31T02:12:17;7.50;;;3.75;;
30301;SDS011;17111;52.130;5.028;2023-07-31T02:14:43;8.55;;;4.15;;
30301;SDS011;17111;52.130;5.028;2023-07-31T02:17:10;6.05;;;3.55;;
30301;SDS011;17111;52.130;5.028;2023-07-31T02:19:36;9.95;;;3.63;;
30301;SDS011;17111;52.130;5.028;2023-07-31T02:22:03;6.35;;;3.17;;
30301;SDS011;17111;52.130;5.028;2023-07-31T02:24:30;6.72;;;3.22;;
30301;SDS011;17111;52.130;5.028;2023-07-31T02:26:58;8.93;;;3.85;;
30301;SDS011;17111;52.130;5.028;2023-07-31T02:29:24;8.15;;;3.53;;
30301;SDS011;17111;52.130;5.028;2023-07-31T02:31:51;7.28;;;3.72;;
30301;SDS011;17111;52.130;5.028;2023-07-31T02:34:17;9.45;;;3.75;;
30301;SDS011;17111;52.130;5.028;2023-07-31T02:36:44;9.68;;;3.90;;
30301;SDS011;17111;52.130;5.028;2023-07-31T02:39:11;7.60;;;3.30;;
30301;SDS011;17111;52.130;5.028;2023-07-31T02:41:37;9.32;;;3.95;;
30301;SDS011;17111;52.130;5.028;2023-07-31T02:44:04;8.60;;;3.63;;
30301;SDS011;17111;52.130;5.028;2023-07-31T02:46:30;9.38;;;3.92;;
30301;SDS011;17111;52.130;5.028;2023-07-31T02:48:57;9.77;;;4.03;;
30301;SDS011;17111;52.130;5.028;2023-07-31T02:51:24;8.38;;;3.42;;
30301;SDS011;17111;52.130;5.028;2023-07-31T02:53:51;9.77;;;3.85;;
30301;SDS011;17111;52.130;5.028;2023-07-31T02:56:17;9.65;;;3.60;;
30301;SDS011;17111;52.130;5.028;2023-07-31T02:58:44;10.32;;;4.28;;
30301;SDS011;17111;52.130;5.028;2023-07-31T03:01:10;7.80;;;3.58;;
30301;SDS011;17111;52.130;5.028;2023-07-31T03:03:37;10.65;;;4.18;;
30301;SDS011;17111;52.130;5.028;2023-07-31T03:06:04;7.97;;;3.47;;
30301;SDS011;17111;52.130;5.028;2023-07-31T03:08:30;9.27;;;3.88;;
30301;SDS011;17111;52.130;5.028;2023-07-31T03:10:57;8.50;;;3.47;;
30301;SDS011;17111;52.130;5.028;2023-07-31T03:13:24;9.43;;;4.07;;
30301;SDS011;17111;52.130;5.028;2023-07-31T03:15:50;9.77;;;3.83;;
30301;SDS011;17111;52.130;5.028;2023-07-31T03:18:17;8.95;;;4.18;;
30301;SDS011;17111;52.130;5.028;2023-07-31T03:20:43;9.38;;;3.78;;
30301;SDS011;17111;52.130;5.028;2023-07-31T03:23:10;9.90;;;4.32;;
30301;SDS011;17111;52.130;5.028;2023-07-31T03:25:37;10.52;;;3.80;;
30301;SDS011;17111;52.130;5.028;2023-07-31T03:28:03;8.63;;;3.75;;
30301;SDS011;17111;52.130;5.028;2023-07-31T03:30:30;7.18;;;4.07;;
30301;SDS011;17111;52.130;5.028;2023-07-31T03:32:57;9.25;;;3.53;;
30301;SDS011;17111;52.130;5.028;2023-07-31T03:35:23;7.00;;;3.42;;
30301;SDS011;17111;52.130;5.028;2023-07-31T03:37:50;8.75;;;3.42;;
30301;SDS011;17111;52.130;5.028;2023-07-31T03:40:16;8.05;;;3.88;;
30301;SDS011;17111;52.130;5.028;2023-07-31T03:42:43;10.43;;;3.92;;
30301;SDS011;17111;52.130;5.028;2023-07-31T03:45:10;9.30;;;3.67;;
30301;SDS011;17111;52.130;5.028;2023-07-31T03:47:36;9.20;;;3.72;;
30301;SDS011;17111;52.130;5.028;2023-07-31T03:50:03;13.30;;;4.35;;
30301;SDS011;17111;52.130;5.028;2023-07-31T03:52:30;12.30;;;4.53;;
30301;SDS011;17111;52.130;5.028;2023-07-31T03:54:56;10.90;;;4.13;;
30301;SDS011;17111;52.130;5.028;2023-07-31T03:57:23;10.05;;;3.83;;
30301;SDS011;17111;52.130;5.028;2023-07-31T03:59:49;8.25;;;3.63;;
30301;SDS011;17111;52.130;5.028;2023-07-31T04:02:16;9.43;;;4.47;;
30301;SDS011;17111;52.130;5.028;2023-07-31T04:04:45;9.52;;;3.83;;
30301;SDS011;17111;52.130;5.028;2023-07-31T04:07:11;8.85;;;3.65;;
30301;SDS011;17111;52.130;5.028;2023-07-31T04:09:38;10.77;;;4.25;;
30301;SDS011;17111;52.130;5.028;2023-07-31T04:12:04;9.65;;;3.80;;
30301;SDS011;17111;52.130;5.028;2023-07-31T04:14:31;9.32;;;3.95;;
30301;SDS011;17111;52.130;5.028;2023-07-31T04:16:58;10.55;;;4.15;;
30301;SDS011;17111;52.130;5.028;2023-07-31T04:19:24;8.82;;;3.60;;
30301;SDS011;17111;52.130;5.028;2023-07-31T04:21:51;11.00;;;4.18;;
30301;SDS011;17111;52.130;5.028;2023-07-31T04:24:17;9.18;;;3.70;;
30301;SDS011;17111;52.130;5.028;2023-07-31T04:26:51;9.73;;;3.63;;
30301;SDS011;17111;52.130;5.028;2023-07-31T04:29:18;11.80;;;4.13;;
30301;SDS011;17111;52.130;5.028;2023-07-31T04:31:47;10.93;;;4.15;;
30301;SDS011;17111;52.130;5.028;2023-07-31T04:34:14;10.70;;;4.15;;
30301;SDS011;17111;52.130;5.028;2023-07-31T04:36:40;11.35;;;4.00;;
30301;SDS011;17111;52.130;5.028;2023-07-31T04:39:07;10.98;;;4.22;;
30301;SDS011;17111;52.130;5.028;2023-07-31T04:41:34;10.82;;;4.72;;
30301;SDS011;17111;52.130;5.028;2023-07-31T04:44:01;12.02;;;4.38;;
30301;SDS011;17111;52.130;5.028;2023-07-31T04:46:27;12.77;;;4.68;;
30301;SDS011;17111;52.130;5.028;2023-07-31T04:48:54;10.25;;;3.92;;
30301;SDS011;17111;52.130;5.028;2023-07-31T04:51:20;8.45;;;3.88;;
30301;SDS011;17111;52.130;5.028;2023-07-31T04:53:47;11.60;;;4.18;;
30301;SDS011;17111;52.130;5.028;2023-07-31T04:56:14;10.07;;;4.20;;
30301;SDS011;17111;52.130;5.028;2023-07-31T04:58:41;9.48;;;3.65;;
30301;SDS011;17111;52.130;5.028;2023-07-31T05:01:08;12.43;;;4.43;;
30301;SDS011;17111;52.130;5.028;2023-07-31T05:03:34;8.57;;;3.70;;
30301;SDS011;17111;52.130;5.028;2023-07-31T05:06:01;7.35;;;3.53;;
30301;SDS011;17111;52.130;5.028;2023-07-31T05:08:28;10.43;;;4.82;;
30301;SDS011;17111;52.130;5.028;2023-07-31T05:10:54;8.50;;;3.90;;
30301;SDS011;17111;52.130;5.028;2023-07-31T05:13:21;9.02;;;3.42;;
30301;SDS011;17111;52.130;5.028;2023-07-31T05:15:47;9.20;;;4.13;;
30301;SDS011;17111;52.130;5.028;2023-07-31T05:18:15;10.23;;;4.00;;
30301;SDS011;17111;52.130;5.028;2023-07-31T05:20:42;7.55;;;3.25;;
30301;SDS011;17111;52.130;5.028;2023-07-31T05:23:09;7.20;;;3.72;;
30301;SDS011;17111;52.130;5.028;2023-07-31T05:25:35;8.80;;;3.75;;
30301;SDS011;17111;52.130;5.028;2023-07-31T05:28:02;6.88;;;3.70;;
30301;SDS011;17111;52.130;5.028;2023-07-31T05:30:31;7.80;;;3.55;;
30301;SDS011;17111;52.130;5.028;2023-07-31T05:32:58;7.85;;;3.20;;
30301;SDS011;17111;52.130;5.028;2023-07-31T05:35:25;7.32;;;3.35;;
30301;SDS011;17111;52.130;5.028;2023-07-31T05:37:51;6.40;;;3.00;;
30301;SDS011;17111;52.130;5.028;2023-07-31T05:40:18;5.38;;;3.40;;
30301;SDS011;17111;52.130;5.028;2023-07-31T05:42:44;7.28;;;3.53;;
30301;SDS011;17111;52.130;5.028;2023-07-31T05:45:11;6.35;;;2.88;;
30301;SDS011;17111;52.130;5.028;2023-07-31T05:47:39;5.68;;;3.20;;
30301;SDS011;17111;52.130;5.028;2023-07-31T05:50:07;8.40;;;3.42;;
30301;SDS011;17111;52.130;5.028;2023-07-31T05:52:34;6.47;;;3.20;;
30301;SDS011;17111;52.130;5.028;2023-07-31T05:55:01;6.50;;;2.90;;
30301;SDS011;17111;52.130;5.028;2023-07-31T05:57:27;7.40;;;2.83;;
30301;SDS011;17111;52.130;5.028;2023-07-31T05:59:54;6.03;;;2.70;;
30301;SDS011;17111;52.130;5.028;2023-07-31T06:02:20;6.85;;;2.92;;
30301;SDS011;17111;52.130;5.028;2023-07-31T06:04:47;8.80;;;3.83;;
30301;SDS011;17111;52.130;5.028;2023-07-31T06:07:14;5.72;;;2.78;;
30301;SDS011;17111;52.130;5.028;2023-07-31T06:09:40;5.63;;;2.92;;
30301;SDS011;17111;52.130;5.028;2023-07-31T06:12:07;4.80;;;3.00;;
30301;SDS011;17111;52.130;5.028;2023-07-31T06:14:35;3.47;;;2.30;;
30301;SDS011;17111;52.130;5.028;2023-07-31T06:17:01;6.15;;;3.10;;
30301;SDS011;17111;52.130;5.028;2023-07-31T06:19:28;5.70;;;2.90;;
30301;SDS011;17111;52.130;5.028;2023-07-31T06:21:54;5.55;;;2.72;;
30301;SDS011;17111;52.130;5.028;2023-07-31T06:24:21;4.43;;;2.38;;
30301;SDS011;17111;52.130;5.028;2023-07-31T06:26:48;5.63;;;2.35;;
30301;SDS011;17111;52.130;5.028;2023-07-31T06:29:15;5.63;;;2.70;;
30301;SDS011;17111;52.130;5.028;2023-07-31T06:31:41;5.90;;;2.65;;
30301;SDS011;17111;52.130;5.028;2023-07-31T06:34:08;4.75;;;2.33;;
30301;SDS011;17111;52.130;5.028;2023-07-31T06:36:35;4.72;;;3.13;;
30301;SDS011;17111;52.130;5.028;2023-07-31T06:39:01;6.20;;;2.70;;
30301;SDS011;17111;52.130;5.028;2023-07-31T06:41:28;3.85;;;1.90;;
30301;SDS011;17111;52.130;5.028;2023-07-31T06:43:54;4.40;;;2.30;;
30301;SDS011;17111;52.130;5.028;2023-07-31T06:46:21;3.65;;;2.20;;
30301;SDS011;17111;52.130;5.028;2023-07-31T06:48:48;4.40;;;2.40;;
30301;SDS011;17111;52.130;5.028;2023-07-31T06:51:14;4.78;;;1.80;;
30301;SDS011;17111;52.130;5.028;2023-07-31T06:53:41;3.70;;;1.90;;
30301;SDS011;17111;52.130;5.028;2023-07-31T06:56:09;3.78;;;2.00;;
30301;SDS011;17111;52.130;5.028;2023-07-31T06:58:35;4.63;;;2.10;;
30301;SDS011;17111;52.130;5.028;2023-07-31T07:01:02;4.43;;;2.22;;
30301;SDS011;17111;52.130;5.028;2023-07-31T07:03:28;3.13;;;1.90;;
30301;SDS011;17111;52.130;5.028;2023-07-31T07:05:55;3.28;;;2.28;;
30301;SDS011;17111;52.130;5.028;2023-07-31T07:08:22;4.20;;;1.70;;
30301;SDS011;17111;52.130;5.028;2023-07-31T07:10:52;4.78;;;1.85;;
30301;SDS011;17111;52.130;5.028;2023-07-31T07:13:20;3.10;;;1.75;;
30301;SDS011;17111;52.130;5.028;2023-07-31T07:15:50;3.55;;;1.90;;
30301;SDS011;17111;52.130;5.028;2023-07-31T07:18:18;3.58;;;1.85;;
30301;SDS011;17111;52.130;5.028;2023-07-31T07:20:51;3.45;;;1.63;;
30301;SDS011;17111;52.130;5.028;2023-07-31T07:23:19;2.55;;;1.55;;
30301;SDS011;17111;52.130;5.028;2023-07-31T07:25:47;5.38;;;2.20;;
30301;SDS011;17111;52.130;5.028;2023-07-31T07:28:14;4.47;;;2.20;;
30301;SDS011;17111;52.130;5.028;2023-07-31T07:30:40;4.35;;;1.73;;
30301;SDS011;17111;52.130;5.028;2023-07-31T07:33:07;5.53;;;1.95;;
30301;SDS011;17111;52.130;5.028;2023-07-31T07:35:34;2.13;;;1.42;;
30301;SDS011;17111;52.130;5.028;2023-07-31T07:38:02;3.28;;;1.55;;
30301;SDS011;17111;52.130;5.028;2023-07-31T07:40:29;2.13;;;1.42;;
30301;SDS011;17111;52.130;5.028;2023-07-31T07:42:55;4.32;;;1.65;;
30301;SDS011;17111;52.130;5.028;2023-07-31T07:45:22;2.67;;;1.52;;
30301;SDS011;17111;52.130;5.028;2023-07-31T07:47:49;2.60;;;1.60;;
30301;SDS011;17111;52.130;5.028;2023-07-31T07:50:15;3.03;;;1.23;;
30301;SDS011;17111;52.130;5.028;2023-07-31T07:52:42;2.13;;;1.48;;
30301;SDS011;17111;52.130;5.028;2023-07-31T07:55:08;2.17;;;1.27;;
30301;SDS011;17111;52.130;5.028;2023-07-31T07:57:35;2.55;;;1.30;;
30301;SDS011;17111;52.130;5.028;2023-07-31T08:00:02;2.13;;;1.30;;
30301;SDS011;17111;52.130;5.028;2023-07-31T08:02:29;2.00;;;1.10;;
30301;SDS011;17111;52.130;5.028;2023-07-31T08:04:55;1.92;;;1.20;;
30301;SDS011;17111;52.130;5.028;2023-07-31T08:07:22;2.03;;;1.42;;
30301;SDS011;17111;52.130;5.028;2023-07-31T08:09:49;1.95;;;1.10;;
30301;SDS011;17111;52.130;5.028;2023-07-31T08:12:15;2.88;;;1.20;;
30301;SDS011;17111;52.130;5.028;2023-07-31T08:14:42;1.38;;;0.80;;
30301;SDS011;17111;52.130;5.028;2023-07-31T08:17:09;2.22;;;1.00;;
30301;SDS011;17111;52.130;5.028;2023-07-31T08:19:35;1.90;;;1.13;;
30301;SDS011;17111;52.130;5.028;2023-07-31T08:22:02;1.77;;;1.17;;
30301;SDS011;17111;52.130;5.028;2023-07-31T08:24:29;1.70;;;1.00;;
30301;SDS011;17111;52.130;5.028;2023-07-31T08:26:55;2.40;;;1.20;;
30301;SDS011;17111;52.130;5.028;2023-07-31T08:29:22;1.15;;;0.85;;
30301;SDS011;17111;52.130;5.028;2023-07-31T08:31:49;1.33;;;0.82;;
30301;SDS011;17111;52.130;5.028;2023-07-31T08:34:15;1.02;;;0.90;;
30301;SDS011;17111;52.130;5.028;2023-07-31T08:36:42;2.50;;;1.10;;
30301;SDS011;17111;52.130;5.028;2023-07-31T08:39:08;1.58;;;0.93;;
30301;SDS011;17111;52.130;5.028;2023-07-31T08:41:38;2.30;;;1.23;;
30301;SDS011;17111;52.130;5.028;2023-07-31T08:44:08;1.88;;;1.10;;
30301;SDS011;17111;52.130;5.028;2023-07-31T08:46:37;1.45;;;0.80;;
30301;SDS011;17111;52.130;5.028;2023-07-31T08:49:05;1.55;;;1.10;;
30301;SDS011;17111;52.130;5.028;2023-07-31T08:51:33;1.52;;;0.80;;
30301;SDS011;17111;52.130;5.028;2023-07-31T08:54:01;1.35;;;1.00;;
30301;SDS011;17111;52.130;5.028;2023-07-31T08:56:27;0.90;;;0.70;;
30301;SDS011;17111;52.130;5.028;2023-07-31T08:58:55;1.25;;;0.80;;
30301;SDS011;17111;52.130;5.028;2023-07-31T09:01:23;1.48;;;0.70;;
30301;SDS011;17111;52.130;5.028;2023-07-31T09:03:50;1.15;;;0.88;;
30301;SDS011;17111;52.130;5.028;2023-07-31T09:06:18;2.17;;;1.00;;
30301;SDS011;17111;52.130;5.028;2023-07-31T09:08:46;1.10;;;0.80;;
30301;SDS011;17111;52.130;5.028;2023-07-31T09:11:13;1.77;;;0.93;;
30301;SDS011;17111;52.130;5.028;2023-07-31T09:13:41;0.95;;;0.77;;
30301;SDS011;17111;52.130;5.028;2023-07-31T09:16:08;1.25;;;0.73;;
30301;SDS011;17111;52.130;5.028;2023-07-31T09:18:55;0.70;;;0.63;;
30301;SDS011;17111;52.130;5.028;2023-07-31T09:21:23;1.23;;;0.75;;
30301;SDS011;17111;52.130;5.028;2023-07-31T09:23:50;1.30;;;0.70;;
30301;SDS011;17111;52.130;5.028;2023-07-31T09:26:30;2.55;;;0.80;;
30301;SDS011;17111;52.130;5.028;2023-07-31T09:28:58;0.85;;;0.70;;
30301;SDS011;17111;52.130;5.028;2023-07-31T09:31:59;1.00;;;0.65;;
30301;SDS011;17111;52.130;5.028;2023-07-31T09:34:20;1.40;;;0.60;;
30301;SDS011;17111;52.130;5.028;2023-07-31T09:36:54;0.68;;;0.47;;
30301;SDS011;17111;52.130;5.028;2023-07-31T09:39:23;0.80;;;0.50;;
30301;SDS011;17111;52.130;5.028;2023-07-31T09:41:55;0.65;;;0.50;;
30301;SDS011;17111;52.130;5.028;2023-07-31T09:44:37;0.85;;;0.55;;
30301;SDS011;17111;52.130;5.028;2023-07-31T09:47:05;1.55;;;0.65;;
30301;SDS011;17111;52.130;5.028;2023-07-31T09:49:32;0.57;;;0.38;;
30301;SDS011;17111;52.130;5.028;2023-07-31T09:51:59;1.20;;;0.68;;
30301;SDS011;17111;52.130;5.028;2023-07-31T09:54:26;0.45;;;0.45;;
30301;SDS011;17111;52.130;5.028;2023-07-31T09:56:53;0.57;;;0.50;;
30301;SDS011;17111;52.130;5.028;2023-07-31T09:59:21;0.60;;;0.55;;
30301;SDS011;17111;52.130;5.028;2023-07-31T10:01:49;0.70;;;0.40;;
30301;SDS011;17111;52.130;5.028;2023-07-31T10:04:18;1.92;;;0.90;;
30301;SDS011;17111;52.130;5.028;2023-07-31T10:06:52;1.30;;;0.60;;
30301;SDS011;17111;52.130;5.028;2023-07-31T10:09:20;2.25;;;1.02;;
30301;SDS011;17111;52.130;5.028;2023-07-31T10:11:55;0.70;;;0.50;;
30301;SDS011;17111;52.130;5.028;2023-07-31T10:14:27;3.90;;;1.02;;
30301;SDS011;17111;52.130;5.028;2023-07-31T10:16:54;1.48;;;0.77;;
30301;SDS011;17111;52.130;5.028;2023-07-31T10:19:23;1.33;;;0.73;;
30301;SDS011;17111;52.130;5.028;2023-07-31T10:21:50;1.77;;;0.70;;
30301;SDS011;17111;52.130;5.028;2023-07-31T10:24:17;1.17;;;0.80;;
30301;SDS011;17111;52.130;5.028;2023-07-31T10:26:45;1.98;;;0.90;;
30301;SDS011;17111;52.130;5.028;2023-07-31T10:29:15;1.70;;;0.95;;
30301;SDS011;17111;52.130;5.028;2023-07-31T10:31:44;1.88;;;0.95;;
30301;SDS011;17111;52.130;5.028;2023-07-31T10:34:13;1.52;;;0.63;;
30301;SDS011;17111;52.130;5.028;2023-07-31T10:36:40;2.90;;;0.80;;
30301;SDS011;17111;52.130;5.028;2023-07-31T10:39:32;2.05;;;0.80;;
30301;SDS011;17111;52.130;5.028;2023-07-31T10:42:09;4.00;;;1.08;;
30301;SDS011;17111;52.130;5.028;2023-07-31T10:44:43;2.05;;;1.13;;
30301;SDS011;17111;52.130;5.028;2023-07-31T10:47:14;2.33;;;1.00;;
30301;SDS011;17111;52.130;5.028;2023-07-31T10:49:41;2.45;;;1.00;;
30301;SDS011;17111;52.130;5.028;2023-07-31T10:52:12;1.00;;;0.60;;
30301;SDS011;17111;52.130;5.028;2023-07-31T10:54:39;1.55;;;0.80;;
30301;SDS011;17111;52.130;5.028;2023-07-31T10:57:18;1.92;;;1.00;;
30301;SDS011;17111;52.130;5.028;2023-07-31T10:59:46;1.77;;;0.82;;
30301;SDS011;17111;52.130;5.028;2023-07-31T11:02:26;2.20;;;1.05;;
30301;SDS011;17111;52.130;5.028;2023-07-31T11:05:06;1.30;;;0.85;;
30301;SDS011;17111;52.130;5.028;2023-07-31T11:07:46;3.92;;;0.95;;
30301;SDS011;17111;52.130;5.028;2023-07-31T11:10:17;1.88;;;0.93;;
30301;SDS011;17111;52.130;5.028;2023-07-31T11:12:45;2.35;;;1.02;;
30301;SDS011;17111;52.130;5.028;2023-07-31T11:15:12;2.08;;;0.98;;
30301;SDS011;17111;52.130;5.028;2023-07-31T11:17:39;1.92;;;0.98;;
30301;SDS011;17111;52.130;5.028;2023-07-31T11:20:06;2.67;;;1.23;;
30301;SDS011;17111;52.130;5.028;2023-07-31T11:22:34;2.08;;;0.80;;
30301;SDS011;17111;52.130;5.028;2023-07-31T11:25:05;2.70;;;0.98;;
30301;SDS011;17111;52.130;5.028;2023-07-31T11:27:38;3.67;;;1.25;;
30301;SDS011;17111;52.130;5.028;2023-07-31T11:30:05;2.55;;;0.90;;
30301;SDS011;17111;52.130;5.028;2023-07-31T11:32:33;1.58;;;0.80;;
30301;SDS011;17111;52.130;5.028;2023-07-31T11:35:00;2.58;;;1.02;;
30301;SDS011;17111;52.130;5.028;2023-07-31T11:37:39;2.08;;;1.10;;
30301;SDS011;17111;52.130;5.028;2023-07-31T11:40:07;1.92;;;1.00;;
30301;SDS011;17111;52.130;5.028;2023-07-31T11:42:35;2.03;;;1.13;;
30301;SDS011;17111;52.130;5.028;2023-07-31T11:45:03;2.17;;;1.08;;
30301;SDS011;17111;52.130;5.028;2023-07-31T11:47:34;3.03;;;1.27;;
30301;SDS011;17111;52.130;5.028;2023-07-31T11:50:05;1.77;;;0.85;;
30301;SDS011;17111;52.130;5.028;2023-07-31T11:52:34;1.20;;;0.60;;
30301;SDS011;17111;52.130;5.028;2023-07-31T11:55:04;3.72;;;0.90;;
30301;SDS011;17111;52.130;5.028;2023-07-31T11:57:36;1.25;;;0.75;;
30301;SDS011;17111;52.130;5.028;2023-07-31T12:00:06;2.72;;;1.23;;
30301;SDS011;17111;52.130;5.028;2023-07-31T12:02:35;1.48;;;0.90;;
30301;SDS011;17111;52.130;5.028;2023-07-31T12:05:02;1.80;;;0.85;;
30301;SDS011;17111;52.130;5.028;2023-07-31T12:07:42;1.35;;;0.90;;
30301;SDS011;17111;52.130;5.028;2023-07-31T12:10:26;1.75;;;1.05;;
30301;SDS011;17111;52.130;5.028;2023-07-31T12:13:26;1.50;;;0.95;;
30301;SDS011;17111;52.130;5.028;2023-07-31T12:15:47;0.82;;;0.82;;
30301;SDS011;17111;52.130;5.028;2023-07-31T12:18:15;2.15;;;1.27;;
30301;SDS011;17111;52.130;5.028;2023-07-31T12:20:48;1.63;;;1.02;;
30301;SDS011;17111;52.130;5.028;2023-07-31T12:23:20;2.03;;;1.02;;
30301;SDS011;17111;52.130;5.028;2023-07-31T12:28:37;1.55;;;0.90;;
30301;SDS011;17111;52.130;5.028;2023-07-31T12:31:14;3.25;;;1.20;;
30301;SDS011;17111;52.130;5.028;2023-07-31T12:33:43;3.25;;;1.40;;
30301;SDS011;17111;52.130;5.028;2023-07-31T12:36:12;4.03;;;1.40;;
30301;SDS011;17111;52.130;5.028;2023-07-31T12:38:43;4.03;;;1.60;;
30301;SDS011;17111;52.130;5.028;2023-07-31T12:41:11;1.52;;;1.10;;
30301;SDS011;17111;52.130;5.028;2023-07-31T12:43:38;1.92;;;0.85;;
30301;SDS011;17111;52.130;5.028;2023-07-31T12:46:06;2.35;;;1.05;;
30301;SDS011;17111;52.130;5.028;2023-07-31T12:48:37;1.85;;;1.10;;
30301;SDS011;17111;52.130;5.028;2023-07-31T12:51:04;1.85;;;1.10;;
30301;SDS011;17111;52.130;5.028;2023-07-31T12:53:33;2.33;;;1.40;;
30301;SDS011;17111;52.130;5.028;2023-07-31T12:55:59;2.05;;;1.38;;
30301;SDS011;17111;52.130;5.028;2023-07-31T12:58:26;1.80;;;1.20;;
30301;SDS011;17111;52.130;5.028;2023-07-31T13:00:53;2.60;;;1.20;;
30301;SDS011;17111;52.130;5.028;2023-07-31T13:03:19;2.80;;;1.27;;
30301;SDS011;17111;52.130;5.028;2023-07-31T13:05:46;1.60;;;1.08;;
30301;SDS011;17111;52.130;5.028;2023-07-31T13:08:13;1.42;;;0.90;;
30301;SDS011;17111;52.130;5.028;2023-07-31T13:10:42;2.90;;;1.40;;
30301;SDS011;17111;52.130;5.028;2023-07-31T13:13:09;1.65;;;1.33;;
30301;SDS011;17111;52.130;5.028;2023-07-31T13:15:35;2.67;;;0.80;;
30301;SDS011;17111;52.130;5.028;2023-07-31T13:18:02;2.75;;;1.45;;
30301;SDS011;17111;52.130;5.028;2023-07-31T13:20:29;2.92;;;1.20;;
30301;SDS011;17111;52.130;5.028;2023-07-31T13:22:56;1.63;;;1.00;;
30301;SDS011;17111;52.130;5.028;2023-07-31T13:25:22;0.95;;;0.85;;
30301;SDS011;17111;52.130;5.028;2023-07-31T13:27:49;1.23;;;1.00;;
30301;SDS011;17111;52.130;5.028;2023-07-31T13:30:16;3.03;;;1.15;;
30301;SDS011;17111;52.130;5.028;2023-07-31T13:32:42;2.15;;;1.00;;
30301;SDS011;17111;52.130;5.028;2023-07-31T13:35:09;1.38;;;1.00;;
30301;SDS011;17111;52.130;5.028;2023-07-31T13:37:37;1.25;;;0.88;;
30301;SDS011;17111;52.130;5.028;2023-07-31T13:40:04;1.60;;;1.00;;
30301;SDS011;17111;52.130;5.028;2023-07-31T13:42:32;1.73;;;1.10;;
30301;SDS011;17111;52.130;5.028;2023-07-31T13:44:59;2.00;;;1.08;;
30301;SDS011;17111;52.130;5.028;2023-07-31T13:47:28;2.10;;;1.15;;
30301;SDS011;17111;52.130;5.028;2023-07-31T13:49:55;1.48;;;1.00;;
30301;SDS011;17111;52.130;5.028;2023-07-31T13:52:21;1.25;;;0.80;;
30301;SDS011;17111;52.130;5.028;2023-07-31T13:54:50;2.17;;;0.90;;
30301;SDS011;17111;52.130;5.028;2023-07-31T13:57:16;0.75;;;0.75;;
30301;SDS011;17111;52.130;5.028;2023-07-31T13:59:43;1.33;;;0.90;;
30301;SDS011;17111;52.130;5.028;2023-07-31T14:02:10;4.93;;;0.95;;
30301;SDS011;17111;52.130;5.028;2023-07-31T14:04:36;1.00;;;0.88;;
30301;SDS011;17111;52.130;5.028;2023-07-31T14:07:03;1.15;;;0.90;;
30301;SDS011;17111;52.130;5.028;2023-07-31T14:09:30;3.78;;;0.95;;
30301;SDS011;17111;52.130;5.028;2023-07-31T14:11:57;2.83;;;0.77;;
30301;SDS011;17111;52.130;5.028;2023-07-31T14:14:24;1.30;;;0.80;;
30301;SDS011;17111;52.130;5.028;2023-07-31T14:16:50;3.13;;;1.25;;
30301;SDS011;17111;52.130;5.028;2023-07-31T14:19:17;2.22;;;0.95;;
30301;SDS011;17111;52.130;5.028;2023-07-31T14:21:44;1.25;;;0.70;;
30301;SDS011;17111;52.130;5.028;2023-07-31T14:24:26;3.15;;;0.80;;
30301;SDS011;17111;52.130;5.028;2023-07-31T14:26:52;2.25;;;0.88;;
30301;SDS011;17111;52.130;5.028;2023-07-31T14:29:19;3.70;;;0.70;;
30301;SDS011;17111;52.130;5.028;2023-07-31T14:31:46;1.35;;;0.82;;
30301;SDS011;17111;52.130;5.028;2023-07-31T14:34:12;4.38;;;1.27;;
30301;SDS011;17111;52.130;5.028;2023-07-31T14:36:39;5.57;;;1.92;;
30301;SDS011;17111;52.130;5.028;2023-07-31T14:39:06;13.55;;;7.82;;
30301;SDS011;17111;52.130;5.028;2023-07-31T14:41:33;14.02;;;8.60;;
30301;SDS011;17111;52.130;5.028;2023-07-31T14:44:00;13.82;;;8.50;;
30301;SDS011;17111;52.130;5.028;2023-07-31T14:46:26;10.82;;;7.07;;
30301;SDS011;17111;52.130;5.028;2023-07-31T14:48:54;16.48;;;6.05;;
30301;SDS011;17111;52.130;5.028;2023-07-31T14:51:21;10.10;;;5.57;;
30301;SDS011;17111;52.130;5.028;2023-07-31T14:53:48;11.90;;;5.85;;
30301;SDS011;17111;52.130;5.028;2023-07-31T14:56:14;11.45;;;5.25;;
30301;SDS011;17111;52.130;5.028;2023-07-31T14:58:41;16.42;;;4.97;;
30301;SDS011;17111;52.130;5.028;2023-07-31T15:01:07;12.63;;;4.97;;
30301;SDS011;17111;52.130;5.028;2023-07-31T15:03:34;10.98;;;5.03;;